Terminal Aerodrome Forecast
Issued by NWS Bismarck, ND

Home | Current Version | Previous Version | Text Only | Print | Product List | Glossary Off
Versions: 1 2 3 4 5 6 7 8 9 10 11 12 13

000
FTUS43 KBIS 120500
TAFISN
TAF
KISN 120524Z 1206/1306 VRB05KT P6SM BKN060
     FM120900 VRB05KT P6SM SCT060
     FM121600 21009KT P6SM SKC
     FM130100 VRB04KT P6SM SKC=

USA.gov is the U.S. government's official web portal to all federal, state and local government web resources and services.